Time;durP1;ratioP1;P1;durP2;ratioP2;P2;SDS_P1;SDS_P2;PMS_P1;PMS_P2;Temp;Humidity;BMP_temperature;BMP_pressure;BME280_temperature;BME280_humidity;BME280_pressure;Samples;Min_cycle;Max_cycle;Signal;HPM_P1;HPM_P2
2022/04/22 00:00:32;;;;;;;16.13;7.82;;;10.00;99.90;;;;;;5136581;27;20085;-61
2022/04/22 00:02:58;;;;;;;14.95;7.28;;;10.20;99.90;;;;;;5136577;27;20053;-62
2022/04/22 00:05:24;;;;;;;14.65;7.88;;;10.20;99.90;;;;;;5136568;27;20533;-61
2022/04/22 00:07:50;;;;;;;12.60;7.20;;;10.00;99.90;;;;;;5118160;27;20498;-62
2022/04/22 00:10:16;;;;;;;16.60;8.27;;;10.40;99.90;;;;;;5136799;27;20035;-61
2022/04/22 00:12:43;;;;;;;15.07;7.93;;;9.70;99.90;;;;;;5136459;27;20043;-61
2022/04/22 00:15:09;;;;;;;15.93;7.55;;;9.70;99.90;;;;;;5136449;27;20083;-61
2022/04/22 00:17:35;;;;;;;11.82;8.05;;;10.40;99.90;;;;;;5136381;27;20126;-61
2022/04/22 00:20:01;;;;;;;14.48;8.20;;;10.20;99.90;;;;;;5136174;27;20204;-61
2022/04/22 00:22:26;;;;;;;13.25;8.23;;;9.70;99.90;;;;;;5117822;27;20047;-61
2022/04/22 00:24:53;;;;;;;13.00;7.97;;;9.60;99.90;;;;;;5136172;27;20047;-61
2022/04/22 00:27:19;;;;;;;10.27;7.18;;;10.30;99.90;;;;;;5136157;27;20047;-61
2022/04/22 00:29:45;;;;;;;13.18;7.55;;;11.10;99.90;;;;;;5136148;27;20050;-62
2022/04/22 00:32:10;;;;;;;18.35;7.53;;;9.30;99.90;;;;;;5135718;27;20043;-61
2022/04/22 00:34:36;;;;;;;15.55;7.85;;;9.20;99.90;;;;;;5136001;27;20053;-62
2022/04/22 00:37:02;;;;;;;14.65;7.82;;;10.80;99.90;;;;;;5135977;27;20129;-61
2022/04/22 00:39:27;;;;;;;16.60;7.82;;;9.30;99.90;;;;;;5135901;27;20031;-61
2022/04/22 00:41:53;;;;;;;11.23;7.82;;;8.90;99.90;;;;;;5135793;27;20051;-61
2022/04/22 00:44:19;;;;;;;13.52;8.15;;;9.00;99.90;;;;;;5135777;27;20054;-61
2022/04/22 00:46:44;;;;;;;19.80;9.15;;;9.60;99.90;;;;;;5135772;27;20038;-63
2022/04/22 00:49:10;;;;;;;13.00;7.65;;;10.10;99.90;;;;;;5135777;27;20039;-61
2022/04/22 00:51:37;;;;;;;15.00;9.65;;;9.00;99.90;;;;;;5135672;27;20047;-62
2022/04/22 00:54:03;;;;;;;15.48;8.00;;;9.10;99.90;;;;;;5135605;27;20510;-61
2022/04/22 00:56:29;;;;;;;15.85;8.90;;;9.10;99.90;;;;;;5117262;27;20506;-62
2022/04/22 00:58:57;;;;;;;15.65;7.82;;;8.60;99.90;;;;;;5135454;27;20073;-62
2022/04/22 01:01:24;;;;;;;21.50;8.27;;;9.10;99.90;;;;;;5135418;27;20080;-61
2022/04/22 01:12:06;;;;;;;16.45;8.07;;;8.80;99.90;;;;;;5135289;27;20104;-62
2022/04/22 01:14:33;;;;;;;18.65;8.80;;;9.00;99.90;;;;;;5135233;27;20433;-61
2022/04/22 01:17:00;;;;;;;14.77;8.52;;;8.70;99.90;;;;;;5135117;27;20096;-61
2022/04/22 01:19:27;;;;;;;15.73;8.20;;;8.90;99.90;;;;;;5134937;27;20100;-61
2022/04/22 01:21:52;;;;;;;;;;;9.00;99.90;;;;;;5135437;27;20055;-61
2022/04/22 01:24:18;;;;;;;14.73;7.97;;;8.90;99.90;;;;;;5135006;27;19919;-61
2022/04/22 01:26:45;;;;;;;14.27;8.70;;;9.00;99.90;;;;;;5134645;27;20046;-61
2022/04/22 01:29:13;;;;;;;16.63;7.80;;;8.90;99.90;;;;;;5134855;27;20047;-61
2022/04/22 01:31:39;;;;;;;17.77;8.57;;;9.00;99.90;;;;;;5134810;27;20047;-61
2022/04/22 01:34:05;;;;;;;15.40;8.98;;;9.40;99.90;;;;;;5134803;27;20043;-62
2022/04/22 01:36:30;;;;;;;17.27;9.13;;;9.10;99.90;;;;;;5134788;27;20369;-63
2022/04/22 01:38:56;;;;;;;15.43;8.90;;;8.90;99.90;;;;;;5134581;27;20494;-61
2022/04/22 01:41:22;;;;;;;14.15;8.82;;;8.90;99.90;;;;;;5134584;27;20452;-60
2022/04/22 01:43:47;;;;;;;15.00;9.02;;;9.00;99.90;;;;;;5133908;27;20444;-61
2022/04/22 01:46:15;;;;;;;15.15;8.40;;;8.90;99.90;;;;;;5134601;27;20046;-61
2022/04/22 01:48:41;;;;;;;14.57;8.55;;;8.80;99.90;;;;;;5134524;27;20077;-62
2022/04/22 01:51:07;;;;;;;21.13;8.57;;;9.10;99.90;;;;;;5134494;27;20531;-62
2022/04/22 01:53:32;;;;;;;15.98;8.95;;;9.10;99.90;;;;;;5134466;27;20047;-61
2022/04/22 01:55:58;;;;;;;15.93;8.70;;;8.80;99.90;;;;;;5134374;27;20046;-62
2022/04/22 01:58:24;;;;;;;16.73;9.07;;;9.00;99.90;;;;;;5134672;27;20104;-63
2022/04/22 02:00:49;;;;;;;19.35;9.02;;;9.20;99.90;;;;;;5134283;27;20039;-62
2022/04/22 02:03:15;;;;;;;15.93;9.15;;;9.00;99.90;;;;;;5134314;27;20053;-62
2022/04/22 02:05:41;;;;;;;16.63;8.32;;;9.10;99.90;;;;;;5134280;27;20050;-61
2022/04/22 02:08:08;;;;;;;14.70;8.40;;;9.00;99.90;;;;;;5134260;27;20046;-62
2022/04/22 02:10:33;;;;;;;16.42;7.57;;;8.70;99.90;;;;;;5134113;27;20122;-61
2022/04/22 02:13:00;;;;;;;15.43;8.18;;;8.90;99.90;;;;;;5134083;27;20122;-61
2022/04/22 02:15:26;;;;;;;12.68;7.78;;;8.90;99.90;;;;;;5134407;27;20062;-62
2022/04/22 02:17:53;;;;;;;12.40;7.15;;;8.50;99.90;;;;;;5134083;27;20047;-61
2022/04/22 02:20:18;;;;;;;;;;;8.80;99.90;;;;;;5134367;27;20481;-61
2022/04/22 02:22:44;;;;;;;15.25;7.93;;;8.60;99.90;;;;;;5134010;27;19919;-61
2022/04/22 02:25:10;;;;;;;11.98;6.95;;;8.50;99.90;;;;;;5133994;27;20467;-61
2022/04/22 02:30:20;;;;;;;14.90;7.10;;;8.50;99.90;;;;;;5133622;27;20566;-61
2022/04/22 02:32:46;;;;;;;15.82;7.20;;;8.60;99.90;;;;;;5133785;27;20051;-61
2022/04/22 02:35:13;;;;;;;13.60;7.72;;;8.20;99.90;;;;;;5115539;28;20050;-61
2022/04/22 02:37:39;;;;;;;14.57;7.47;;;8.50;99.90;;;;;;5115637;27;20047;-62
2022/04/22 02:40:06;;;;;;;11.45;7.35;;;8.40;99.90;;;;;;5133723;27;20042;-61
2022/04/22 02:45:29;;;;;;;12.90;8.00;;;8.50;99.90;;;;;;5098584;28;20375;-61
2022/04/22 02:47:56;;;;;;;16.90;7.47;;;8.40;99.90;;;;;;5133693;28;20134;-62
2022/04/22 02:50:22;;;;;;;18.00;7.70;;;8.50;99.90;;;;;;5133691;28;20042;-63
2022/04/22 02:52:48;;;;;;;13.57;7.80;;;8.40;99.90;;;;;;5133617;28;20043;-62
2022/04/22 02:55:14;;;;;;;16.75;7.80;;;8.40;99.90;;;;;;5134597;27;20140;-62
2022/04/22 02:57:43;;;;;;;15.02;7.28;;;8.30;99.90;;;;;;5137914;27;20479;-61
2022/04/22 03:00:13;;;;;;;14.30;7.30;;;8.40;99.90;;;;;;5137821;27;20489;-61
2022/04/22 03:02:39;;;;;;;15.57;7.65;;;8.50;99.90;;;;;;5138102;27;20043;-62
2022/04/22 03:05:05;;;;;;;16.30;7.40;;;8.40;99.90;;;;;;5137723;27;20050;-61
2022/04/22 03:07:31;;;;;;;;;;;8.50;99.90;;;;;;5138038;27;20078;-61
2022/04/22 03:09:56;;;;;;;15.57;7.20;;;8.10;99.90;;;;;;5137341;27;19974;-62
2022/04/22 03:12:23;;;;;;;13.52;6.82;;;8.30;99.90;;;;;;5137602;27;20058;-63
2022/04/22 03:14:49;;;;;;;10.82;6.28;;;8.30;99.90;;;;;;5119375;27;20043;-61
2022/04/22 03:17:15;;;;;;;13.32;6.72;;;8.20;99.90;;;;;;5137486;27;20399;-62
2022/04/22 03:19:41;;;;;;;14.93;6.68;;;8.10;99.90;;;;;;5119013;27;20039;-61
2022/04/22 03:22:06;;;;;;;13.45;6.80;;;8.20;99.90;;;;;;5137432;27;20055;-61
2022/04/22 03:24:32;;;;;;;12.32;7.10;;;8.30;99.90;;;;;;5137425;27;20403;-62
2022/04/22 03:26:57;;;;;;;12.38;6.45;;;8.00;99.90;;;;;;5137628;27;20039;-60
2022/04/22 03:29:23;;;;;;;13.43;6.53;;;8.40;99.90;;;;;;5137243;27;20126;-62
2022/04/22 03:31:49;;;;;;;11.50;6.13;;;8.00;99.90;;;;;;5137209;27;20047;-61
2022/04/22 03:34:14;;;;;;;11.80;5.82;;;8.00;99.90;;;;;;5137211;27;20047;-60
2022/04/22 03:36:40;;;;;;;14.13;6.22;;;7.90;99.90;;;;;;5137434;27;20495;-61
2022/04/22 03:39:07;;;;;;;14.93;6.18;;;8.20;99.90;;;;;;5137055;27;20438;-61
2022/04/22 03:41:33;;;;;;;12.45;6.50;;;7.70;99.90;;;;;;5136666;27;20051;-62
2022/04/22 03:43:59;;;;;;;10.98;5.85;;;7.60;99.90;;;;;;5118703;27;20058;-60
2022/04/22 03:46:25;;;;;;;10.38;5.47;;;7.70;99.90;;;;;;5136926;27;20039;-61
2022/04/22 03:48:50;;;;;;;15.75;6.97;;;7.60;99.90;;;;;;5136836;27;20054;-61
2022/04/22 03:51:16;;;;;;;10.48;6.30;;;7.90;99.90;;;;;;5136853;27;20516;-61
2022/04/22 03:53:41;;;;;;;10.23;5.90;;;7.30;99.90;;;;;;5136543;27;20057;-61
2022/04/22 03:58:52;;;;;;;9.18;5.80;;;;;;;;;;5136670;27;20490;-60
2022/04/22 04:01:17;;;;;;;11.13;6.22;;;7.80;99.90;;;;;;5136685;27;20051;-62
2022/04/22 04:03:43;;;;;;;10.13;5.30;;;7.40;99.90;;;;;;5136591;27;20054;-61
2022/04/22 04:06:09;;;;;;;13.48;5.72;;;;;;;;;;5136594;27;20049;-61
2022/04/22 04:08:35;;;;;;;10.02;5.60;;;7.70;99.90;;;;;;5135759;27;20080;-61
2022/04/22 04:16:29;;;;;;;9.27;5.65;;;7.50;99.90;;;;;;5136131;27;20493;-62
2022/04/22 04:23:14;;;;;;;12.02;6.03;;;7.20;99.90;;;;;;5136226;27;20042;-62
2022/04/22 04:24:24;;;;;;;17.20;5.75;;;7.00;99.90;;;;;;5136245;27;20043;-62
2022/04/22 04:26:53;;;;;;;9.73;5.95;;;7.20;99.90;;;;;;5136122;27;20039;-61
2022/04/22 04:29:19;;;;;;;7.20;5.18;;;7.40;99.90;;;;;;5136139;27;20066;-63
2022/04/22 04:31:47;;;;;;;8.10;4.93;;;;;;;;;;5136095;27;20074;-63
2022/04/22 04:34:13;;;;;;;12.63;5.53;;;;;;;;;;5136065;27;20096;-63
2022/04/22 04:36:38;;;;;;;;;;;7.50;99.90;;;;;;5136393;27;20489;-61
2022/04/22 04:39:04;;;;;;;6.25;4.95;;;7.20;99.90;;;;;;5135816;27;19919;-61
2022/04/22 04:41:30;;;;;;;9.13;5.22;;;7.30;99.90;;;;;;5117249;27;20086;-62
2022/04/22 04:43:55;;;;;;;7.47;4.78;;;7.30;99.90;;;;;;5136122;27;20084;-61
2022/04/22 04:46:21;;;;;;;10.80;4.53;;;7.50;99.90;;;;;;5135800;27;20475;-61
2022/04/22 04:48:47;;;;;;;8.68;4.80;;;;;;;;;;5135723;27;20055;-61
2022/04/22 04:51:13;;;;;;;9.90;4.45;;;7.40;99.90;;;;;;5135690;27;20101;-62
2022/04/22 04:53:38;;;;;;;8.57;4.88;;;7.40;99.90;;;;;;5135724;27;20398;-62
2022/04/22 04:56:04;;;;;;;10.32;4.88;;;7.30;99.90;;;;;;5135591;27;20471;-61
2022/04/22 04:58:30;;;;;;;8.98;4.40;;;7.30;99.90;;;;;;5135570;27;20523;-63
2022/04/22 05:00:55;;;;;;;7.60;4.65;;;7.30;99.90;;;;;;5135409;27;20046;-61
2022/04/22 05:03:21;;;;;;;8.02;4.53;;;7.60;99.90;;;;;;5135366;27;20047;-62
2022/04/22 05:05:47;;;;;;;7.40;4.80;;;7.60;99.90;;;;;;5135366;27;20051;-62
2022/04/22 05:08:13;;;;;;;10.02;4.22;;;7.60;99.90;;;;;;5135411;27;20049;-63
2022/04/22 05:10:40;;;;;;;6.25;4.47;;;7.60;99.90;;;;;;5135329;27;20115;-62
2022/04/22 05:13:06;;;;;;;6.95;4.22;;;7.80;99.90;;;;;;5135260;27;20092;-62
2022/04/22 05:15:33;;;;;;;5.82;4.22;;;7.80;99.90;;;;;;5135236;27;20043;-62
2022/04/22 05:17:59;;;;;;;4.63;3.75;;;7.80;99.90;;;;;;5134934;27;20055;-63
2022/04/22 05:20:25;;;;;;;11.57;4.30;;;7.90;99.90;;;;;;5134166;27;20080;-61
2022/04/22 05:22:53;;;;;;;7.57;4.20;;;8.20;99.90;;;;;;5135008;27;20047;-61
2022/04/22 05:25:20;;;;;;;5.72;3.88;;;8.10;99.90;;;;;;5134950;27;20080;-62
2022/04/22 05:27:46;;;;;;;8.10;3.80;;;;;;;;;;5134966;27;20448;-61
2022/04/22 05:32:58;;;;;;;8.80;3.53;;;8.30;99.90;;;;;;5134868;27;20051;-63
2022/04/22 05:35:28;;;;;;;5.68;3.63;;;8.30;99.90;;;;;;5116238;27;20051;-63
2022/04/22 05:37:56;;;;;;;6.47;3.60;;;8.40;99.90;;;;;;5135046;27;20054;-62
2022/04/22 05:40:24;;;;;;;7.25;3.67;;;8.40;99.90;;;;;;5134576;27;20047;-63
2022/04/22 05:42:51;;;;;;;7.43;3.90;;;8.60;99.90;;;;;;5134731;27;20059;-62
2022/04/22 05:45:18;;;;;;;5.72;4.03;;;8.50;99.90;;;;;;5134637;27;20039;-61
2022/04/22 05:47:44;;;;;;;5.22;3.45;;;8.50;99.90;;;;;;5134572;27;20058;-63
2022/04/22 05:50:11;;;;;;;7.30;3.55;;;8.60;99.90;;;;;;5134569;27;20047;-62
2022/04/22 05:52:38;;;;;;;8.48;3.28;;;8.90;99.90;;;;;;5134440;27;20054;-61
2022/04/22 05:55:07;;;;;;;7.30;4.22;;;8.80;99.90;;;;;;5134429;27;20110;-63
2022/04/22 05:57:33;;;;;;;5.88;3.33;;;8.90;99.90;;;;;;5134365;27;20050;-61
2022/04/22 05:59:59;;;;;;;;;;;9.00;99.90;;;;;;5134691;27;20386;-62
2022/04/22 06:02:26;;;;;;;5.63;3.38;;;9.10;99.90;;;;;;5134618;27;19919;-62
2022/04/22 06:04:51;;;;;;;;;;;9.20;99.90;;;;;;5134711;27;20147;-62
2022/04/22 06:07:17;;;;;;;5.78;3.40;;;9.50;99.90;;;;;;5134246;27;19972;-63
2022/04/22 06:12:27;;;;;;;6.88;3.50;;;9.40;99.90;;;;;;5134193;27;20119;-61
2022/04/22 06:14:53;;;;;;;7.10;3.40;;;9.20;99.90;;;;;;5134084;27;20130;-63
2022/04/22 06:17:19;;;;;;;6.43;3.72;;;9.30;99.90;;;;;;5115970;27;20125;-64
2022/04/22 06:19:45;;;;;;;7.18;3.75;;;9.60;99.90;;;;;;5115679;27;20470;-65
2022/04/22 06:22:10;;;;;;;7.25;3.63;;;9.50;99.90;;;;;;5133744;27;20047;-63
2022/04/22 06:24:36;;;;;;;5.45;3.17;;;9.40;99.90;;;;;;5133715;27;20047;-62
2022/04/22 06:27:02;;;;;;;6.55;3.75;;;9.70;99.90;;;;;;5133937;27;20125;-63
2022/04/22 06:29:28;;;;;;;6.05;3.42;;;9.70;99.90;;;;;;5133858;27;20061;-63
2022/04/22 06:31:54;;;;;;;9.73;3.63;;;9.60;99.90;;;;;;5133649;27;20126;-63
2022/04/22 06:34:20;;;;;;;7.80;3.55;;;9.90;99.90;;;;;;5133863;27;20043;-63
2022/04/22 06:36:46;;;;;;;7.25;3.88;;;9.90;99.90;;;;;;5133831;27;20055;-62
2022/04/22 06:39:13;;;;;;;7.80;3.55;;;10.00;99.90;;;;;;5133788;27;20055;-61
2022/04/22 06:47:10;;;;;;;9.40;3.58;;;9.80;99.90;;;;;;5115388;28;20415;-64
2022/04/22 06:49:36;;;;;;;;;;;;;;;;;;5134117;28;20080;-61
2022/04/22 06:52:02;;;;;;;7.18;3.40;;;10.40;99.90;;;;;;5133582;28;20026;-62
2022/04/22 06:54:28;;;;;;;5.55;3.53;;;10.50;99.90;;;;;;5133651;28;20047;-64
2022/04/22 06:56:54;;;;;;;7.63;3.70;;;10.40;99.90;;;;;;5133603;28;20092;-62
2022/04/22 06:59:22;;;;;;;8.07;3.50;;;10.20;99.90;;;;;;5133539;28;20082;-62
2022/04/22 07:01:48;;;;;;;6.25;3.55;;;10.60;99.90;;;;;;5133584;28;20151;-63
2022/04/22 07:04:14;;;;;;;6.47;4.03;;;10.50;99.90;;;;;;5133574;28;20047;-63
2022/04/22 07:06:42;;;;;;;6.28;3.67;;;10.40;99.90;;;;;;5133527;28;20040;-64
2022/04/22 07:09:10;;;;;;;8.00;3.83;;;10.40;99.90;;;;;;5133457;28;20391;-62
2022/04/22 07:11:38;;;;;;;8.80;3.50;;;10.40;99.90;;;;;;5115094;28;20391;-63
2022/04/22 07:14:04;;;;;;;7.38;3.85;;;12.30;99.90;;;;;;5114982;28;20059;-63
2022/04/22 07:16:30;;;;;;;8.18;3.78;;;10.80;99.90;;;;;;5115230;28;20051;-64
2022/04/22 07:18:57;;;;;;;10.98;3.85;;;10.90;99.90;;;;;;5133308;28;20546;-63
2022/04/22 07:21:24;;;;;;;10.57;3.88;;;10.60;99.90;;;;;;5133422;28;20082;-64
2022/04/22 07:23:50;;;;;;;6.65;3.78;;;11.00;99.90;;;;;;5133400;28;20051;-65
2022/04/22 07:26:20;;;;;;;7.28;3.75;;;10.80;99.90;;;;;;5115220;28;20122;-63
2022/04/22 07:28:47;;;;;;;8.85;3.72;;;11.00;99.90;;;;;;5133284;28;20047;-61
2022/04/22 07:31:19;;;;;;;9.45;4.07;;;12.40;99.90;;;;;;5133296;28;20043;-64
2022/04/22 07:33:45;;;;;;;8.68;3.47;;;10.80;99.90;;;;;;5115204;28;20051;-65
2022/04/22 07:36:11;;;;;;;7.85;3.63;;;10.70;99.90;;;;;;5133607;28;20062;-64
2022/04/22 07:38:37;;;;;;;;;;;10.80;99.90;;;;;;5133418;28;20506;-64
2022/04/22 07:41:04;;;;;;;9.75;4.20;;;10.80;99.90;;;;;;5132955;27;19957;-62
2022/04/22 07:48:59;;;;;;;13.60;4.68;;;11.40;99.90;;;;;;5137004;27;20072;-63
2022/04/22 07:51:27;;;;;;;13.10;4.55;;;10.90;99.90;;;;;;5136918;27;20054;-65
2022/04/22 07:53:55;;;;;;;11.70;4.32;;;11.20;99.90;;;;;;5136811;27;20678;-63
2022/04/22 07:56:21;;;;;;;6.65;3.55;;;11.60;99.90;;;;;;5136872;27;20090;-64
2022/04/22 07:58:47;;;;;;;7.97;4.40;;;11.80;99.90;;;;;;5136964;27;20049;-61
2022/04/22 08:01:12;;;;;;;10.07;3.78;;;12.50;99.90;;;;;;5136681;27;20050;-63
2022/04/22 08:03:38;;;;;;;5.70;3.83;;;11.30;99.90;;;;;;5136358;27;20085;-62
2022/04/22 08:06:06;;;;;;;9.32;3.95;;;11.40;99.90;;;;;;5136589;27;20047;-63
2022/04/22 08:08:32;;;;;;;10.18;3.60;;;11.50;99.90;;;;;;5136517;27;20111;-64
2022/04/22 08:10:57;;;;;;;11.10;4.28;;;12.20;99.90;;;;;;5118160;27;20035;-63
2022/04/22 08:13:25;;;;;;;7.43;3.95;;;12.00;99.90;;;;;;5136394;27;20047;-63
2022/04/22 08:15:52;;;;;;;9.57;3.67;;;11.60;99.90;;;;;;5100996;27;20479;-64
2022/04/22 08:18:17;;;;;;;;;;;12.00;99.90;;;;;;5136811;27;20096;-63
2022/04/22 08:20:43;;;;;;;10.25;4.03;;;11.80;99.90;;;;;;5136233;27;20315;-64
2022/04/22 08:23:09;;;;;;;7.78;3.95;;;12.10;99.90;;;;;;5136311;27;20047;-63
2022/04/22 08:25:34;;;;;;;14.38;4.07;;;12.00;99.90;;;;;;5136209;27;20487;-64
2022/04/22 08:28:02;;;;;;;11.45;4.15;;;12.00;99.90;;;;;;5136180;27;20376;-63
2022/04/22 08:30:29;;;;;;;12.98;4.13;;;12.10;99.90;;;;;;5136123;27;20047;-64
2022/04/22 08:32:55;;;;;;;9.50;4.15;;;12.20;99.90;;;;;;5136033;27;20054;-62
2022/04/22 08:35:20;;;;;;;8.85;4.30;;;12.30;99.90;;;;;;5136035;27;20047;-64
2022/04/22 08:37:46;;;;;;;7.80;3.72;;;12.30;99.90;;;;;;5136000;27;20495;-64
2022/04/22 08:40:13;;;;;;;9.23;4.05;;;12.40;99.90;;;;;;5117601;27;20494;-63
2022/04/22 08:42:40;;;;;;;9.05;3.75;;;12.50;99.90;;;;;;5136051;27;20047;-62
2022/04/22 08:45:07;;;;;;;9.63;4.03;;;12.30;99.90;;;;;;5117433;27;20047;-65
2022/04/22 08:50:19;;;;;;;11.93;4.18;;;12.70;99.90;;;;;;5135814;27;20046;-63
2022/04/22 08:53:04;;;;;;;6.47;4.10;;;12.70;99.90;;;;;;5135467;27;20077;-63
2022/04/22 08:55:31;;;;;;;10.98;4.72;;;12.50;99.90;;;;;;5117545;27;20422;-63
2022/04/22 08:57:57;;;;;;;11.68;4.65;;;12.70;99.90;;;;;;5135589;27;20155;-63
2022/04/22 09:00:26;;;;;;;14.35;3.80;;;12.60;99.90;;;;;;5135431;27;20127;-65
2022/04/22 09:02:57;;;;;;;6.60;3.83;;;12.70;99.90;;;;;;5117258;27;20039;-62
2022/04/22 09:05:24;;;;;;;8.73;4.30;;;12.50;99.90;;;;;;5135427;27;20039;-62
2022/04/22 09:07:51;;;;;;;11.73;4.30;;;12.80;99.90;;;;;;5135400;27;20051;-62
2022/04/22 09:10:17;;;;;;;9.82;3.92;;;12.50;99.90;;;;;;5135356;27;20054;-63
2022/04/22 09:12:51;;;;;;;8.05;3.85;;;13.00;99.90;;;;;;5135378;27;20043;-62
2022/04/22 09:15:17;;;;;;;9.10;4.40;;;12.80;99.90;;;;;;5135390;27;20489;-63
2022/04/22 09:17:42;;;;;;;9.25;4.28;;;13.50;99.90;;;;;;5134890;27;20051;-63
2022/04/22 09:20:15;;;;;;;10.15;4.70;;;13.10;99.90;;;;;;5116757;27;20039;-63
2022/04/22 09:22:41;;;;;;;11.43;4.50;;;12.90;99.90;;;;;;5135165;27;20047;-65
2022/04/22 09:25:07;;;;;;;9.38;4.35;;;13.10;99.90;;;;;;5135068;27;20050;-66
2022/04/22 09:27:38;;;;;;;10.02;4.32;;;13.10;99.90;;;;;;5116837;27;20154;-64
2022/04/22 09:30:09;;;;;;;9.00;4.00;;;14.10;99.90;;;;;;5134994;27;20054;-65
2022/04/22 09:32:39;;;;;;;7.30;4.28;;;13.40;99.90;;;;;;5134957;27;20132;-63
2022/04/22 09:35:15;;;;;;;9.55;4.25;;;13.40;99.90;;;;;;5134851;27;20390;-62
2022/04/22 09:43:39;;;;;;;17.10;4.50;;;13.60;99.90;;;;;;5134796;27;20106;-64
2022/04/22 09:46:06;;;;;;;9.60;4.72;;;13.20;99.90;;;;;;5135083;27;20288;-61
2022/04/22 09:48:44;;;;;;;9.23;4.63;;;13.00;99.90;;;;;;5134582;27;20399;-64
2022/04/22 09:51:39;;;;;;;8.85;4.80;;;13.40;99.90;;;;;;5134509;27;20126;-63
2022/04/22 09:54:10;;;;;;;7.85;4.38;;;13.60;99.90;;;;;;5116695;27;20051;-63
2022/04/22 09:56:38;;;;;;;5.22;4.10;;;13.50;99.90;;;;;;5134204;27;20483;-64
2022/04/22 09:59:26;;;;;;;8.32;4.65;;;13.40;99.90;;;;;;5134368;27;20087;-63
2022/04/22 10:01:53;;;;;;;10.52;4.50;;;14.20;99.90;;;;;;5116318;27;20340;-63
2022/04/22 10:04:22;;;;;;;12.02;4.50;;;13.10;99.90;;;;;;5133829;27;20510;-61
2022/04/22 10:06:49;;;;;;;8.30;4.30;;;13.40;99.90;;;;;;5115627;27;20100;-63
2022/04/22 10:09:15;;;;;;;11.05;4.70;;;13.50;99.90;;;;;;5115948;27;20141;-64
2022/04/22 10:11:48;;;;;;;9.23;4.68;;;13.20;99.90;;;;;;5134218;27;20051;-65
2022/04/22 10:14:17;;;;;;;10.63;4.65;;;13.40;99.90;;;;;;5134165;27;20072;-62
2022/04/22 10:16:44;;;;;;;13.50;4.57;;;13.10;99.90;;;;;;5134123;27;20432;-62
2022/04/22 10:19:10;;;;;;;12.85;4.50;;;13.40;99.90;;;;;;5133968;27;20075;-62
2022/04/22 10:21:37;;;;;;;;;;;13.40;99.90;;;;;;5134433;27;20078;-61
2022/04/22 10:24:03;;;;;;;9.18;4.80;;;12.90;99.90;;;;;;5134035;27;19927;-62
2022/04/22 10:26:29;;;;;;;10.32;4.63;;;13.40;99.90;;;;;;5115529;27;20390;-61
2022/04/22 10:28:55;;;;;;;;;;;13.40;99.90;;;;;;5134680;27;20126;-65
2022/04/22 10:31:23;;;;;;;9.35;4.40;;;13.20;99.90;;;;;;5133615;27;20396;-64
2022/04/22 10:33:49;;;;;;;10.75;5.18;;;13.50;99.90;;;;;;5133592;27;20525;-64
2022/04/22 10:36:19;;;;;;;;;;;13.10;99.90;;;;;;5134343;27;20043;-64
2022/04/22 10:38:49;;;;;;;8.48;4.85;;;13.70;99.90;;;;;;5150087;27;19923;-62
2022/04/22 10:41:22;;;;;;;9.20;4.80;;;15.00;99.90;;;;;;5133645;27;20051;-65
2022/04/22 10:49:37;;;;;;;10.13;5.07;;;13.90;99.90;;;;;;5133787;28;20092;-63
2022/04/22 10:52:10;;;;;;;12.85;4.97;;;13.80;99.90;;;;;;5133687;28;20047;-63
2022/04/22 10:55:05;;;;;;;16.38;5.97;;;13.80;99.90;;;;;;5133655;28;20047;-63
2022/04/22 10:57:33;;;;;;;10.35;5.20;;;13.70;99.90;;;;;;5104931;28;20062;-66
2022/04/22 11:00:11;;;;;;;12.68;5.38;;;14.90;99.90;;;;;;5115231;28;20039;-64
2022/04/22 11:02:43;;;;;;;10.93;5.65;;;13.90;99.90;;;;;;5133637;28;20057;-65
2022/04/22 11:05:32;;;;;;;14.20;6.70;;;13.70;99.90;;;;;;5115175;28;20039;-62
2022/04/22 11:07:58;;;;;;;13.00;6.25;;;13.60;99.90;;;;;;5094651;28;20059;-64
2022/04/22 11:10:48;;;;;;;11.45;5.38;;;13.90;99.90;;;;;;5133474;28;20056;-63
2022/04/22 11:13:34;;;;;;;13.98;5.43;;;13.70;99.90;;;;;;5133466;28;20391;-65
2022/04/22 11:16:06;;;;;;;13.13;5.72;;;14.00;99.90;;;;;;5133970;27;20470;-64
2022/04/22 11:18:33;;;;;;;10.18;5.35;;;14.00;99.90;;;;;;5119242;27;20036;-63
2022/04/22 11:20:59;;;;;;;10.65;5.40;;;16.20;99.90;;;;;;5137494;27;20066;-63
2022/04/22 11:23:33;;;;;;;;;;;13.80;99.90;;;;;;5137956;27;20047;-63
2022/04/22 11:25:59;;;;;;;14.68;6.70;;;13.80;99.90;;;;;;5137496;27;20005;-64
2022/04/22 11:28:26;;;;;;;;;;;14.20;99.90;;;;;;5137834;27;20479;-65
2022/04/22 11:30:53;;;;;;;11.52;5.82;;;14.00;99.90;;;;;;5137374;27;20018;-63
2022/04/22 11:33:53;;;;;;;13.98;5.63;;;14.00;99.90;;;;;;5137317;27;20446;-63
2022/04/22 11:36:19;;;;;;;11.48;5.65;;;14.10;99.90;;;;;;5137605;27;20058;-63
2022/04/22 11:38:54;;;;;;;10.73;6.10;;;14.10;99.90;;;;;;5118905;27;20130;-63
2022/04/22 11:41:20;;;;;;;14.80;5.68;;;14.20;99.90;;;;;;5136872;27;20055;-62
2022/04/22 11:43:46;;;;;;;;;;;14.60;99.90;;;;;;5137475;27;20051;-65
2022/04/22 11:46:13;;;;;;;11.63;5.97;;;14.60;99.90;;;;;;5137037;27;19923;-63
2022/04/22 11:48:50;;;;;;;13.00;6.03;;;14.90;99.90;;;;;;5137126;27;20039;-64
2022/04/22 11:51:19;;;;;;;10.95;6.00;;;14.10;99.90;;;;;;5137027;27;20051;-65
2022/04/22 11:53:49;;;;;;;12.25;5.65;;;14.80;99.90;;;;;;5136948;27;20039;-62
2022/04/22 11:56:22;;;;;;;13.55;6.03;;;14.50;99.90;;;;;;5137007;27;20043;-62
2022/04/22 11:58:55;;;;;;;10.77;5.90;;;14.70;99.90;;;;;;5118318;27;20047;-63
2022/04/22 12:06:58;;;;;;;13.90;6.43;;;14.50;99.90;;;;;;5136577;27;20058;-65
2022/04/22 12:09:25;;;;;;;10.38;6.13;;;14.70;99.90;;;;;;5118267;27;20047;-64
2022/04/22 12:11:51;;;;;;;14.05;6.93;;;14.80;99.90;;;;;;5136549;27;20148;-63
2022/04/22 12:14:25;;;;;;;12.32;7.10;;;16.20;99.90;;;;;;5136508;27;20085;-64
2022/04/22 12:16:56;;;;;;;18.35;7.20;;;15.60;99.90;;;;;;5136393;27;20043;-63
2022/04/22 12:19:23;;;;;;;25.33;7.97;;;14.60;99.90;;;;;;5118148;27;20127;-63
2022/04/22 12:21:49;;;;;;;14.00;6.80;;;14.50;99.90;;;;;;5118225;27;20059;-65
2022/04/22 12:24:16;;;;;;;12.60;6.75;;;15.00;99.90;;;;;;5136344;27;20487;-64
2022/04/22 12:26:44;;;;;;;13.00;6.15;;;15.00;99.90;;;;;;5136292;27;20395;-63
2022/04/22 12:29:18;;;;;;;9.98;6.57;;;15.10;99.90;;;;;;5135592;27;20058;-63
2022/04/22 12:31:45;;;;;;;10.50;6.18;;;15.10;99.90;;;;;;5136193;27;20055;-67
2022/04/22 12:34:26;;;;;;;11.50;5.97;;;14.90;99.90;;;;;;5136117;27;20054;-63
2022/04/22 12:36:52;;;;;;;9.38;6.22;;;15.20;99.90;;;;;;5117825;27;20365;-63
2022/04/22 12:39:36;;;;;;;;;;;14.70;99.90;;;;;;5136373;27;20050;-64
2022/04/22 12:42:03;;;;;;;11.77;5.93;;;14.70;99.90;;;;;;5135974;27;19923;-64
2022/04/22 12:44:29;;;;;;;10.65;6.20;;;15.10;99.90;;;;;;5135988;27;20168;-65
2022/04/22 12:52:47;;;;;;;16.52;6.55;;;14.90;99.90;;;;;;5135799;27;20050;-64
2022/04/22 12:55:16;;;;;;;19.27;6.60;;;15.30;99.90;;;;;;5117635;27;20047;-62
2022/04/22 12:57:42;;;;;;;11.15;6.18;;;15.00;99.90;;;;;;5135690;27;20078;-62
2022/04/22 13:00:13;;;;;;;12.60;6.18;;;15.30;99.90;;;;;;5135559;27;20085;-65
2022/04/22 13:02:39;;;;;;;12.88;7.05;;;15.30;99.90;;;;;;5135560;27;20058;-64
2022/04/22 13:05:09;;;;;;;11.73;6.90;;;15.50;99.90;;;;;;5135459;27;20043;-62
2022/04/22 13:07:40;;;;;;;12.65;6.72;;;15.70;99.90;;;;;;5135433;27;20111;-62
2022/04/22 13:10:12;;;;;;;15.65;7.00;;;15.80;99.90;;;;;;5135502;27;20050;-62
2022/04/22 13:12:40;;;;;;;13.60;6.88;;;15.60;99.90;;;;;;5135438;27;20470;-65
2022/04/22 13:15:12;;;;;;;12.60;6.88;;;15.60;99.90;;;;;;5135459;27;20043;-63
2022/04/22 13:17:43;;;;;;;17.42;7.03;;;15.60;99.90;;;;;;5135433;27;20050;-62
2022/04/22 13:20:10;;;;;;;10.40;6.68;;;15.90;99.90;;;;;;5099538;27;20050;-66
2022/04/22 13:22:36;;;;;;;13.20;6.43;;;15.80;99.90;;;;;;5135156;27;20053;-65
2022/04/22 13:25:03;;;;;;;10.45;6.45;;;16.30;99.90;;;;;;5135171;27;20051;-65
2022/04/22 13:27:29;;;;;;;15.07;7.38;;;16.20;99.90;;;;;;5135047;27;20043;-62
2022/04/22 13:29:55;;;;;;;19.23;6.93;;;16.30;99.90;;;;;;5134734;27;20054;-62
2022/04/22 13:32:21;;;;;;;14.07;6.82;;;16.50;99.90;;;;;;5134983;27;20086;-62
2022/04/22 13:34:46;;;;;;;10.70;6.80;;;16.10;99.90;;;;;;5134926;27;20482;-64
2022/04/22 13:37:12;;;;;;;14.00;7.30;;;16.10;99.90;;;;;;5116763;27;20475;-64
2022/04/22 13:39:38;;;;;;;17.52;6.75;;;16.10;99.90;;;;;;5133896;27;20042;-66
2022/04/22 13:42:04;;;;;;;14.98;6.47;;;16.20;99.90;;;;;;5134521;27;20059;-64
2022/04/22 13:52:44;;;;;;;20.08;7.03;;;16.70;99.90;;;;;;5134660;27;20054;-66
2022/04/22 13:55:10;;;;;;;12.38;7.47;;;16.90;99.90;;;;;;5134477;27;20054;-63
2022/04/22 13:57:36;;;;;;;13.70;6.03;;;17.00;99.90;;;;;;5134508;27;20055;-64
2022/04/22 14:00:04;;;;;;;11.20;6.50;;;16.70;99.90;;;;;;5134424;27;20495;-62
2022/04/22 14:02:30;;;;;;;18.58;6.80;;;16.70;99.90;;;;;;5115974;27;20046;-64
2022/04/22 14:04:56;;;;;;;13.98;7.05;;;16.80;99.90;;;;;;5116103;27;20054;-64
2022/04/22 14:07:22;;;;;;;17.98;6.85;;;17.20;99.90;;;;;;5134333;27;20047;-65